Friday, November 24, 2017, 8:13 AM EST
Back to Local

KSBY, Salisbury-wicomico Cty Reg

Location: Salisbury, MD, United States Lat: 38.333
Local Time: 8:13 AM EST (13:13 GMT) Lon: -75.5
Time Zone: US/Eastern Elev: 52 ft

Show me the last for .
Show Decoded

2017-11-24 07:54 METAR KSBY 241254Z 00000KT 10SM CLR M02/M03 A3009 RMK AO2 SLP191 T10171028 =
2017-11-24 06:54 METAR KSBY 241154Z 00000KT 10SM CLR M04/M05 A3009 RMK AO2 SLP193 T10391050 11022
                 21044 51003 =
2017-11-24 05:54 METAR KSBY 241054Z 00000KT 10SM CLR M03/M04 A3009 RMK AO2 SLP192 T10331044 =
2017-11-24 04:54 METAR KSBY 240954Z AUTO 00000KT 10SM CLR M03/M04 A3009 RMK AO2 SLP194 T10331044
                 =
2017-11-24 03:54 METAR KSBY 240854Z AUTO 00000KT 10SM CLR M03/M04 A3008 RMK AO2 SLP189 T10331039
                 58000 =
2017-11-24 02:54 METAR KSBY 240754Z AUTO 00000KT 10SM CLR M03/M04 A3008 RMK AO2 SLP189 T10281039
                 =
2017-11-24 01:54 METAR KSBY 240654Z AUTO 00000KT 10SM CLR M03/M04 A3008 RMK AO2 SLP190 T10331044
                 =
2017-11-24 00:54 METAR KSBY 240554Z AUTO 00000KT 10SM CLR M03/M04 A3008 RMK AO2 SLP190 T10281039
                 10000 21033 50000 =
2017-11-23 23:54 METAR KSBY 240454Z AUTO 00000KT 10SM CLR M03/M04 A3009 RMK AO2 SLP192 T10331039
                 400611033 =
2017-11-23 22:54 METAR KSBY 240354Z AUTO 00000KT 10SM CLR M03/M04 A3009 RMK AO2 SLP192 T10281039
                 =
2017-11-23 21:54 METAR KSBY 240254Z 00000KT 10SM CLR M03/M04 A3008 RMK AO2 SLP190 T10281039 53002
                 =
2017-11-23 20:54 METAR KSBY 240154Z 00000KT 10SM CLR M02/M03 A3007 RMK AO2 SLP186 T10221033 =
2017-11-23 19:54 METAR KSBY 240054Z 00000KT 10SM CLR M02/M03 A3008 RMK AO2 SLP190 T10171033 =
2017-11-23 18:54 METAR KSBY 232354Z 00000KT 10SM CLR 00/M03 A3008 RMK AO2 SLP188 T00001028 10061
                 21011 51001 =
2017-11-23 17:54 METAR KSBY 232254Z 00000KT 10SM CLR 02/M04 A3008 RMK AO2 SLP187 T00221039 =
2017-11-23 16:54 METAR KSBY 232154Z 30005KT 10SM CLR 03/M03 A3008 RMK AO2 SLP188 T00331033 =
2017-11-23 15:54 METAR KSBY 232054Z 30004KT 10SM CLR 05/M03 A3008 RMK AO2 SLP187 T00501028 56013
                 =
2017-11-23 14:54 METAR KSBY 231954Z 00000KT 10SM CLR 05/M04 A3008 RMK AO2 SLP189 T00501044 =
2017-11-23 13:54 METAR KSBY 231854Z 25008KT 10SM CLR 05/M04 A3009 RMK AO2 SLP193 T00501039 =
2017-11-23 12:54 METAR KSBY 231754Z 29005KT 10SM CLR 04/M04 A3011 RMK AO2 SLP200 T00391039 10039
                 21006 56020 =
2017-11-23 11:54 METAR KSBY 231654Z 35006KT 10SM CLR 04/M04 A3012 RMK AO2 SLP202 T00391044 =
2017-11-23 10:54 METAR KSBY 231554Z 32003KT 10SM CLR 04/M04 A3015 RMK AO2 SLP214 T00391039 =
2017-11-23 09:54 METAR KSBY 231454Z 34009KT 10SM CLR 03/M04 A3017 RMK AO2 SLP220 T00281039 50005
                 =
2017-11-23 08:54 METAR KSBY 231354Z 34008KT 10SM CLR 02/M04 A3018 RMK AO2 SLP224 T00171044 =

Support USWX by starting your Amazon purchase here.